Reno, NV

1:07 PM PDT on September 23, 2014 (GMT -0700)
Reno - Stead | Change Station
CLOSE
Current Station
Airport
Location: Reno - Stead,
Elevation: 5049 ft
Nearby Weather Stations
Active Advisory: Dense Smoke Advisory

Elev 5049 ft 39.67 °N, 119.88 °W | Updated 12 minutes ago

Clear
Clear
81 °F
Feels Like 81 °F
N
12
Wind Variable Wind from WSW
Gusts 20 mph

Today
High -- | Low -- °F
--% Chance of Precip.
Yesterday
High -- | Low -- °F
Precip. -- in
6:48 AM 6:54 PM
Waning Crescent, 0% visible
Pressure 30.11 in
Visibility 10.0 miles
Clouds Clear
Dew Point 27 °F
Humidity 14%
Rainfall 0.00 in
Snow Depth 0 in , 0 in , 1 in
UV 8 out of 12
Pollen 7.00 out of 12
Air Quality Not available.
Flu Activity Not available.
METAR KRTS 231955Z AUTO 25010G17KT 10SM CLR 27/M03 A3011 RMK AO2

More Conditions Fewer Conditions

Pressure 30.11 in
Visibility 10.0 miles
Clouds Clear
Dew Point 27 °F
Humidity 14%
Rainfall 0.00 in
Snow Depth 0 in , 0 in , 1 in
UV 8 out of 12
Pollen 7.00 out of 12
Air Quality Not available.
Flu Activity Not available.
METAR KRTS 231955Z AUTO 25010G17KT 10SM CLR 27/M03 A3011 RMK AO2

More Conditions Fewer Conditions

10-Day Weather Forecast

Almanac

Astronomy

Sep. 23, 2014 Rise Set
Actual Time 6:48 AM PDT 6:54 PM PDT
Civil Twilight 6:21 AM PDT 7:21 PM PDT
Nautical Twilight 5:49 AM PDT 7:53 PM PDT
Astronomical Twilight 5:17 AM PDT 8:24 PM PDT
Moon 6:17 AM PDT 6:36 PM PDT
Length of Visible Light 13h 00m
Length of Day
12h 06m
Tomorrow will be 2m 34s shorter.
Waning Crescent, 0% of the Moon is Illuminated
Today
Waning Crescent
Sep 24
New
Oct 1
First Quarter
Oct 8
Full
Oct 15
Last Quarter

Today's Extremes

State Highs State Lows

Community

WunderPhotos

Upload Photos

1,755,784 photos uploaded!

WunderBlogs® & News

By Dr. Jeff Masters
Director of Meteorology, Weather Underground
By Kari Strenfel
Meteorologist, Weather Underground
By Christopher C. Burt
Weather Historian, Weather Underground
September 23, 2014
September 23, 2014
September 23, 2014

Nearby

Snow Depth

Station Depth Elevation
Pole Creek R.S. 0 in 8330 ft
Granite Peak 0 in 7800 ft
Taylor Canyon 1 in 6200 ft
Sheldon 0 in 5860 ft
Seventysix Creek 0 in 7100 ft

Earthquake Activity

City Distance Mag. Time & Date
No recent earthquake activity has been reported nearby.
Minimum magnitude displayed is 2.5.

Coastal Water Temperatures

Place Temperature
No Stations Reporting

Nearby Weather Stations